CheckWX is a tool to help pilots better visualize weather data.  It is not intended as a substitute for an official pre-flight weather briefing.

07:16:41 UTC

KDDC TAF
Dodge City Regional Airport
Dodge City, Kansas, USA
KDDC 180520Z 1806/1906 22009KT P6SM BKN200 FM180900 27010KT P6SM BKN200 FM181500 30013G23KT P6SM SCT200 FM181800 33020G30KT P6SM SKC FM182300 33007KT P6SM SKC

Nov-18@
06:00 UTC

Nov-18 @ 06:00 UTC

Nov-18@
09:00 UTC

Nov-18 @ 09:00 UTC

KDDC 180520Z 1806/1906 22009KT P6SM BKN200
Wind
  • 220° at 9 KTS
Cloud Levels
  • Broken at 20,000' AGL

Nov-18@
09:00 UTC

Nov-18 @ 09:00 UTC

Nov-18@
15:00 UTC

Nov-18 @ 15:00 UTC

FM180900 27010KT P6SM BKN200

From

From Standard forecast or significant change

Wind
  • 270° at 10 KTS
Cloud Levels
  • Broken at 20,000' AGL

Nov-18@
15:00 UTC

Nov-18 @ 15:00 UTC

Nov-18@
18:00 UTC

Nov-18 @ 18:00 UTC

FM181500 30013G23KT P6SM SCT200

From

From Standard forecast or significant change

Wind
  • 300° at 13 KTS
  • {Gusting to 23 KTS
Cloud Levels
  • Scattered at 20,000' AGL

Nov-18@
18:00 UTC

Nov-18 @ 18:00 UTC

Nov-18@
23:00 UTC

Nov-18 @ 23:00 UTC

FM181800 33020G30KT P6SM SKC

From

From Standard forecast or significant change

Wind
  • 330° at 20 KTS
  • {Gusting to 30 KTS
Cloud Levels
  • Clear skies

Nov-18@
23:00 UTC

Nov-18 @ 23:00 UTC

Nov-19@
06:00 UTC

Nov-19 @ 06:00 UTC

FM182300 33007KT P6SM SKC

From

From Standard forecast or significant change

Wind
  • 330° at 7 KTS
Cloud Levels
  • Clear skies